sensor_id;sensor_type;location;lat;lon;timestamp;pressure;altitude;pressure_sealevel;temperature;humidity
7614;BME280;3848;42.016;23.098;2022-11-27T00:02:17;98127.88;;;2.39;100.00
7614;BME280;3848;42.016;23.098;2022-11-27T00:04:44;98136.31;;;2.41;100.00
7614;BME280;3848;42.016;23.098;2022-11-27T00:07:12;98138.59;;;2.35;100.00
7614;BME280;3848;42.016;23.098;2022-11-27T00:09:39;98126.69;;;2.30;100.00
7614;BME280;3848;42.016;23.098;2022-11-27T00:12:06;98133.19;;;2.26;100.00
7614;BME280;3848;42.016;23.098;2022-11-27T00:14:33;98131.59;;;2.28;100.00
7614;BME280;3848;42.016;23.098;2022-11-27T00:16:59;98062.19;;;1.86;100.00
7614;BME280;3848;42.016;23.098;2022-11-27T00:19:26;98136.56;;;2.27;100.00
7614;BME280;3848;42.016;23.098;2022-11-27T00:21:53;98133.34;;;2.29;100.00
7614;BME280;3848;42.016;23.098;2022-11-27T00:24:21;98123.84;;;2.22;100.00
7614;BME280;3848;42.016;23.098;2022-11-27T00:26:48;98121.34;;;2.22;100.00
7614;BME280;3848;42.016;23.098;2022-11-27T00:29:15;98129.84;;;2.26;100.00
7614;BME280;3848;42.016;23.098;2022-11-27T00:31:42;98129.03;;;2.27;100.00
7614;BME280;3848;42.016;23.098;2022-11-27T00:34:09;98121.34;;;2.22;100.00
7614;BME280;3848;42.016;23.098;2022-11-27T00:36:36;98114.78;;;2.26;100.00
7614;BME280;3848;42.016;23.098;2022-11-27T00:39:04;98114.56;;;2.20;100.00
7614;BME280;3848;42.016;23.098;2022-11-27T00:41:32;98117.97;;;2.22;100.00
7614;BME280;3848;42.016;23.098;2022-11-27T00:43:59;98121.22;;;2.19;100.00
7614;BME280;3848;42.016;23.098;2022-11-27T00:46:28;98112.09;;;2.21;100.00
7614;BME280;3848;42.016;23.098;2022-11-27T00:48:55;98109.72;;;2.24;100.00
7614;BME280;3848;42.016;23.098;2022-11-27T00:51:23;98109.72;;;2.24;100.00
7614;BME280;3848;42.016;23.098;2022-11-27T00:53:50;98116.50;;;2.27;100.00
7614;BME280;3848;42.016;23.098;2022-11-27T00:56:20;98115.66;;;2.26;100.00
7614;BME280;3848;42.016;23.098;2022-11-27T00:58:49;98115.66;;;2.26;100.00
7614;BME280;3848;42.016;23.098;2022-11-27T01:01:18;98110.41;;;2.20;100.00
7614;BME280;3848;42.016;23.098;2022-11-27T01:03:46;98119.22;;;2.31;100.00
7614;BME280;3848;42.016;23.098;2022-11-27T01:06:14;98118.44;;;2.32;100.00
7614;BME280;3848;42.016;23.098;2022-11-27T01:08:41;98105.50;;;2.23;100.00
7614;BME280;3848;42.016;23.098;2022-11-27T01:11:12;98109.03;;;2.28;100.00
7614;BME280;3848;42.016;23.098;2022-11-27T01:13:40;98113.19;;;2.28;100.00
7614;BME280;3848;42.016;23.098;2022-11-27T01:16:10;98111.50;;;2.27;100.00
7614;BME280;3848;42.016;23.098;2022-11-27T01:18:38;98112.34;;;2.27;100.00
7614;BME280;3848;42.016;23.098;2022-11-27T01:21:06;98109.03;;;2.28;100.00
7614;BME280;3848;42.016;23.098;2022-11-27T01:23:33;98107.22;;;2.24;100.00
7614;BME280;3848;42.016;23.098;2022-11-27T01:26:00;98107.28;;;2.26;100.00
7614;BME280;3848;42.016;23.098;2022-11-27T01:28:27;98103.97;;;2.27;100.00
7614;BME280;3848;42.016;23.098;2022-11-27T01:30:54;98094.50;;;2.20;100.00
7614;BME280;3848;42.016;23.098;2022-11-27T01:33:22;98104.03;;;2.28;100.00
7614;BME280;3848;42.016;23.098;2022-11-27T01:35:54;98101.72;;;2.33;100.00
7614;BME280;3848;42.016;23.098;2022-11-27T01:38:21;98083.84;;;2.25;100.00
7614;BME280;3848;42.016;23.098;2022-11-27T01:40:48;98106.19;;;2.40;100.00
7614;BME280;3848;42.016;23.098;2022-11-27T01:43:15;98105.25;;;2.38;100.00
7614;BME280;3848;42.016;23.098;2022-11-27T01:45:43;98112.34;;;2.48;100.00
7614;BME280;3848;42.016;23.098;2022-11-27T01:48:12;98096.50;;;2.49;100.00
7614;BME280;3848;42.016;23.098;2022-11-27T01:50:40;98097.56;;;2.54;100.00
7614;BME280;3848;42.016;23.098;2022-11-27T01:53:12;98095.03;;;2.54;100.00
7614;BME280;3848;42.016;23.098;2022-11-27T01:55:43;98099.00;;;2.49;100.00
7614;BME280;3848;42.016;23.098;2022-11-27T01:58:14;98098.66;;;2.40;100.00
7614;BME280;3848;42.016;23.098;2022-11-27T02:00:42;98107.59;;;2.33;100.00
7614;BME280;3848;42.016;23.098;2022-11-27T02:03:09;98099.88;;;2.29;100.00
7614;BME280;3848;42.016;23.098;2022-11-27T02:05:36;98051.88;;;1.99;100.00
7614;BME280;3848;42.016;23.098;2022-11-27T02:08:06;98092.06;;;2.21;100.00
7614;BME280;3848;42.016;23.098;2022-11-27T02:10:44;98095.47;;;2.23;100.00
7614;BME280;3848;42.016;23.098;2022-11-27T02:13:15;98108.69;;;2.19;100.00
7614;BME280;3848;42.016;23.098;2022-11-27T02:15:47;98101.09;;;2.18;100.00
7614;BME280;3848;42.016;23.098;2022-11-27T02:18:22;98093.53;;;2.16;100.00
7614;BME280;3848;42.016;23.098;2022-11-27T02:20:56;98095.84;;;2.11;100.00
7614;BME280;3848;42.016;23.098;2022-11-27T02:23:49;98099.09;;;2.09;100.00
7614;BME280;3848;42.016;23.098;2022-11-27T02:29:22;98104.53;;;2.20;100.00
7614;BME280;3848;42.016;23.098;2022-11-27T02:31:56;98084.22;;;2.13;100.00
7614;BME280;3848;42.016;23.098;2022-11-27T02:34:26;98039.78;;;1.89;100.00
7614;BME280;3848;42.016;23.098;2022-11-27T02:36:58;98086.97;;;1.99;100.00
7614;BME280;3848;42.016;23.098;2022-11-27T02:39:32;98099.38;;;1.96;100.00
7614;BME280;3848;42.016;23.098;2022-11-27T02:42:05;98101.09;;;1.97;100.00
7614;BME280;3848;42.016;23.098;2022-11-27T02:44:37;98096.75;;;1.93;100.00
7614;BME280;3848;42.016;23.098;2022-11-27T02:47:08;98097.53;;;1.92;100.00
7614;BME280;3848;42.016;23.098;2022-11-27T02:49:36;98096.69;;;1.91;100.00
7614;BME280;3848;42.016;23.098;2022-11-27T02:52:05;98096.69;;;1.91;100.00
7614;BME280;3848;42.016;23.098;2022-11-27T02:54:33;98095.09;;;1.93;100.00
7614;BME280;3848;42.016;23.098;2022-11-27T02:57:02;98100.84;;;1.91;100.00
7614;BME280;3848;42.016;23.098;2022-11-27T02:59:32;98105.59;;;1.84;100.00
7614;BME280;3848;42.016;23.098;2022-11-27T03:02:10;98100.13;;;1.74;100.00
7614;BME280;3848;42.016;23.098;2022-11-27T03:04:43;98104.22;;;1.72;100.00
7614;BME280;3848;42.016;23.098;2022-11-27T03:07:15;98101.38;;;1.64;100.00
7614;BME280;3848;42.016;23.098;2022-11-27T03:09:45;98116.63;;;1.69;100.00
7614;BME280;3848;42.016;23.098;2022-11-27T03:12:16;98119.25;;;1.72;100.00
7614;BME280;3848;42.016;23.098;2022-11-27T03:14:44;98115.28;;;1.77;100.00
7614;BME280;3848;42.016;23.098;2022-11-27T03:17:21;98112.91;;;1.80;100.00
7614;BME280;3848;42.016;23.098;2022-11-27T03:19:53;98122.19;;;1.82;100.00
7614;BME280;3848;42.016;23.098;2022-11-27T03:22:20;98127.50;;;1.89;100.00
7614;BME280;3848;42.016;23.098;2022-11-27T03:24:47;98130.25;;;1.95;100.00
7614;BME280;3848;42.016;23.098;2022-11-27T03:27:17;98127.75;;;1.95;100.00
7614;BME280;3848;42.016;23.098;2022-11-27T03:29:47;98123.53;;;1.94;100.00
7614;BME280;3848;42.016;23.098;2022-11-27T03:32:17;98122.91;;;1.99;100.00
7614;BME280;3848;42.016;23.098;2022-11-27T03:34:44;98120.59;;;2.04;100.00
7614;BME280;3848;42.016;23.098;2022-11-27T03:37:12;98075.34;;;1.80;100.00
7614;BME280;3848;42.016;23.098;2022-11-27T03:39:39;98121.78;;;2.12;100.00
7614;BME280;3848;42.016;23.098;2022-11-27T03:42:14;98117.78;;;2.17;100.00
7614;BME280;3848;42.016;23.098;2022-11-27T03:44:45;98123.78;;;2.21;100.00
7614;BME280;3848;42.016;23.098;2022-11-27T03:47:28;98125.81;;;2.29;100.00
7614;BME280;3848;42.016;23.098;2022-11-27T03:50:08;98110.63;;;2.26;100.00
7614;BME280;3848;42.016;23.098;2022-11-27T03:52:44;98106.31;;;2.22;100.00
7614;BME280;3848;42.016;23.098;2022-11-27T03:55:22;98116.66;;;2.30;100.00
7614;BME280;3848;42.016;23.098;2022-11-27T03:57:56;98114.66;;;2.23;100.00
7614;BME280;3848;42.016;23.098;2022-11-27T04:00:26;98123.38;;;2.10;100.00
7614;BME280;3848;42.016;23.098;2022-11-27T04:02:55;98116.00;;;1.94;100.00
7614;BME280;3848;42.016;23.098;2022-11-27T04:05:22;98119.03;;;1.87;100.00
7614;BME280;3848;42.016;23.098;2022-11-27T04:07:49;98129.72;;;1.82;100.00
7614;BME280;3848;42.016;23.098;2022-11-27T04:10:16;98109.06;;;1.67;100.00
7614;BME280;3848;42.016;23.098;2022-11-27T04:12:43;98107.41;;;1.68;100.00
7614;BME280;3848;42.016;23.098;2022-11-27T04:15:10;98118.53;;;1.74;100.00
7614;BME280;3848;42.016;23.098;2022-11-27T04:17:37;98121.03;;;1.74;100.00
7614;BME280;3848;42.016;23.098;2022-11-27T04:20:07;98120.84;;;1.70;100.00
7614;BME280;3848;42.016;23.098;2022-11-27T04:22:34;98126.44;;;1.64;100.00
7614;BME280;3848;42.016;23.098;2022-11-27T04:25:01;98126.78;;;1.52;100.00
7614;BME280;3848;42.016;23.098;2022-11-27T04:27:28;98129.09;;;1.48;100.00
7614;BME280;3848;42.016;23.098;2022-11-27T04:29:55;98127.63;;;1.53;100.00
7614;BME280;3848;42.016;23.098;2022-11-27T04:32:21;98119.34;;;1.54;100.00
7614;BME280;3848;42.016;23.098;2022-11-27T04:34:48;98119.19;;;1.51;100.00
7614;BME280;3848;42.016;23.098;2022-11-27T04:37:16;98127.63;;;1.53;100.00
7614;BME280;3848;42.016;23.098;2022-11-27T04:39:43;98129.22;;;1.51;100.00
7614;BME280;3848;42.016;23.098;2022-11-27T04:42:10;98130.69;;;1.46;100.00
7614;BME280;3848;42.016;23.098;2022-11-27T04:44:37;98130.59;;;1.44;100.00
7614;BME280;3848;42.016;23.098;2022-11-27T04:47:03;98132.09;;;1.41;100.00
7614;BME280;3848;42.016;23.098;2022-11-27T04:49:30;98120.25;;;1.37;100.00
7614;BME280;3848;42.016;23.098;2022-11-27T04:51:57;98140.69;;;1.46;100.00
7614;BME280;3848;42.016;23.098;2022-11-27T04:54:25;98135.69;;;1.46;100.00
7614;BME280;3848;42.016;23.098;2022-11-27T04:56:52;98141.88;;;1.54;100.00
7614;BME280;3848;42.016;23.098;2022-11-27T04:59:19;98143.72;;;1.58;100.00
7614;BME280;3848;42.016;23.098;2022-11-27T05:01:46;98150.63;;;1.64;100.00
7614;BME280;3848;42.016;23.098;2022-11-27T05:04:13;98154.78;;;1.63;100.00
7614;BME280;3848;42.016;23.098;2022-11-27T05:06:40;98142.13;;;1.60;100.00
7614;BME280;3848;42.016;23.098;2022-11-27T05:09:07;98142.00;;;1.57;100.00
7614;BME280;3848;42.016;23.098;2022-11-27T05:11:35;98144.69;;;1.62;100.00
7614;BME280;3848;42.016;23.098;2022-11-27T05:14:02;98142.25;;;1.63;100.00
7614;BME280;3848;42.016;23.098;2022-11-27T05:16:47;98138.56;;;1.55;100.00
7614;BME280;3848;42.016;23.098;2022-11-27T05:19:16;98142.00;;;1.57;100.00
7614;BME280;3848;42.016;23.098;2022-11-27T05:21:44;98147.25;;;1.63;100.00
7614;BME280;3848;42.016;23.098;2022-11-27T05:24:12;98132.78;;;1.56;100.00
7614;BME280;3848;42.016;23.098;2022-11-27T05:26:41;98136.44;;;1.64;100.00
7614;BME280;3848;42.016;23.098;2022-11-27T05:29:08;98147.25;;;1.63;100.00
7614;BME280;3848;42.016;23.098;2022-11-27T05:31:36;98149.13;;;1.67;100.00
7614;BME280;3848;42.016;23.098;2022-11-27T05:34:03;98138.56;;;1.74;100.00
7614;BME280;3848;42.016;23.098;2022-11-27T05:36:31;98127.56;;;1.71;100.00
7614;BME280;3848;42.016;23.098;2022-11-27T05:38:59;98143.16;;;1.84;100.00
7614;BME280;3848;42.016;23.098;2022-11-27T05:41:25;98144.09;;;1.87;100.00
7614;BME280;3848;42.016;23.098;2022-11-27T05:43:54;98139.28;;;1.91;100.00
7614;BME280;3848;42.016;23.098;2022-11-27T05:46:21;98137.63;;;1.92;100.00
7614;BME280;3848;42.016;23.098;2022-11-27T05:48:49;98141.06;;;1.94;100.00
7614;BME280;3848;42.016;23.098;2022-11-27T05:51:16;98144.72;;;2.02;100.00
7614;BME280;3848;42.016;23.098;2022-11-27T05:53:44;98144.97;;;2.08;100.00
7614;BME280;3848;42.016;23.098;2022-11-27T05:56:13;98151.00;;;2.11;100.00
7614;BME280;3848;42.016;23.098;2022-11-27T05:58:42;98138.25;;;2.07;100.00
7614;BME280;3848;42.016;23.098;2022-11-27T06:01:11;98141.19;;;1.97;100.00
7614;BME280;3848;42.016;23.098;2022-11-27T06:03:38;98149.94;;;1.87;100.00
7614;BME280;3848;42.016;23.098;2022-11-27T06:06:06;98160.44;;;1.78;100.00
7614;BME280;3848;42.016;23.098;2022-11-27T06:08:33;98176.81;;;1.70;100.00
7614;BME280;3848;42.016;23.098;2022-11-27T06:11:05;98177.31;;;1.63;100.00
7614;BME280;3848;42.016;23.098;2022-11-27T06:13:32;98177.13;;;1.59;100.00
7614;BME280;3848;42.016;23.098;2022-11-27T06:16:03;98175.03;;;1.48;100.00
7614;BME280;3848;42.016;23.098;2022-11-27T06:18:31;98174.72;;;1.42;100.00
7614;BME280;3848;42.016;23.098;2022-11-27T06:20:58;98178.38;;;1.49;100.00
7614;BME280;3848;42.016;23.098;2022-11-27T06:23:25;98185.03;;;1.48;100.00
7614;BME280;3848;42.016;23.098;2022-11-27T06:25:52;98172.06;;;1.57;100.00
7614;BME280;3848;42.016;23.098;2022-11-27T06:28:18;98161.06;;;1.53;100.00
7614;BME280;3848;42.016;23.098;2022-11-27T06:30:45;98180.69;;;1.64;100.00
7614;BME280;3848;42.016;23.098;2022-11-27T06:33:12;98179.69;;;1.60;100.00
7614;BME280;3848;42.016;23.098;2022-11-27T06:35:40;98186.41;;;1.61;100.00
7614;BME280;3848;42.016;23.098;2022-11-27T06:38:07;98178.97;;;1.63;100.00
7614;BME280;3848;42.016;23.098;2022-11-27T06:40:33;98158.41;;;1.50;100.00
7614;BME280;3848;42.016;23.098;2022-11-27T06:43:00;98170.81;;;1.67;100.00
7614;BME280;3848;42.016;23.098;2022-11-27T06:45:27;98166.78;;;1.70;100.00
7614;BME280;3848;42.016;23.098;2022-11-27T06:47:54;98166.50;;;1.83;100.00
7614;BME280;3848;42.016;23.098;2022-11-27T06:50:20;98166.00;;;1.91;100.00
7614;BME280;3848;42.016;23.098;2022-11-27T06:52:48;98179.75;;;2.00;100.00
7614;BME280;3848;42.016;23.098;2022-11-27T06:55:15;98146.81;;;1.91;100.00
7614;BME280;3848;42.016;23.098;2022-11-27T06:57:42;98171.13;;;2.13;100.00
7614;BME280;3848;42.016;23.098;2022-11-27T07:00:10;98173.13;;;2.22;100.00
7614;BME280;3848;42.016;23.098;2022-11-27T07:02:37;98176.09;;;2.32;100.00
7614;BME280;3848;42.016;23.098;2022-11-27T07:05:03;98175.38;;;2.35;100.00
7614;BME280;3848;42.016;23.098;2022-11-27T07:07:30;98172.00;;;2.34;100.00
7614;BME280;3848;42.016;23.098;2022-11-27T07:09:58;98180.50;;;2.38;100.00
7614;BME280;3848;42.016;23.098;2022-11-27T07:12:25;98179.94;;;2.45;100.00
7614;BME280;3848;42.016;23.098;2022-11-27T07:14:52;98173.53;;;2.52;100.00
7614;BME280;3848;42.016;23.098;2022-11-27T07:17:19;98176.41;;;2.61;100.00
7614;BME280;3848;42.016;23.098;2022-11-27T07:19:45;98153.72;;;2.58;100.00
7614;BME280;3848;42.016;23.098;2022-11-27T07:22:12;98174.38;;;2.73;100.00
7614;BME280;3848;42.016;23.098;2022-11-27T07:24:40;98173.13;;;2.84;100.00
7614;BME280;3848;42.016;23.098;2022-11-27T07:27:08;98166.41;;;2.83;100.00
7614;BME280;3848;42.016;23.098;2022-11-27T07:29:35;98165.59;;;2.84;100.00
7614;BME280;3848;42.016;23.098;2022-11-27T07:32:02;98174.22;;;2.91;100.00
7614;BME280;3848;42.016;23.098;2022-11-27T07:34:29;98164.13;;;2.89;100.00
7614;BME280;3848;42.016;23.098;2022-11-27T07:36:55;98153.22;;;2.89;100.00
7614;BME280;3848;42.016;23.098;2022-11-27T07:39:22;98158.44;;;2.93;100.00
7614;BME280;3848;42.016;23.098;2022-11-27T07:41:49;98156.16;;;2.99;100.00
7614;BME280;3848;42.016;23.098;2022-11-27T07:44:18;98159.13;;;3.12;100.00
7614;BME280;3848;42.016;23.098;2022-11-27T07:46:44;98156.28;;;3.25;100.00
7614;BME280;3848;42.016;23.098;2022-11-27T07:49:11;98156.84;;;3.40;100.00
7614;BME280;3848;42.016;23.098;2022-11-27T07:51:38;98157.28;;;3.52;100.00
7614;BME280;3848;42.016;23.098;2022-11-27T07:54:04;98145.00;;;3.60;100.00
7614;BME280;3848;42.016;23.098;2022-11-27T07:56:31;98146.06;;;3.66;100.00
7614;BME280;3848;42.016;23.098;2022-11-27T07:58:58;98146.13;;;3.68;100.00
7614;BME280;3848;42.016;23.098;2022-11-27T08:01:26;98145.22;;;3.66;100.00
7614;BME280;3848;42.016;23.098;2022-11-27T08:03:53;98145.16;;;3.64;100.00
7614;BME280;3848;42.016;23.098;2022-11-27T08:06:21;98148.75;;;3.71;100.00
7614;BME280;3848;42.016;23.098;2022-11-27T08:08:49;98152.22;;;3.75;100.00
7614;BME280;3848;42.016;23.098;2022-11-27T08:11:18;98143.03;;;3.75;100.00
7614;BME280;3848;42.016;23.098;2022-11-27T08:13:45;98139.53;;;3.72;100.00
7614;BME280;3848;42.016;23.098;2022-11-27T08:16:12;98151.09;;;3.66;100.00
7614;BME280;3848;42.016;23.098;2022-11-27T08:18:41;98127.25;;;3.55;100.00
7614;BME280;3848;42.016;23.098;2022-11-27T08:21:07;98142.84;;;3.71;100.00
7614;BME280;3848;42.016;23.098;2022-11-27T08:23:34;98130.78;;;3.84;100.00
7614;BME280;3848;42.016;23.098;2022-11-27T08:26:04;98133.63;;;3.95;100.00
7614;BME280;3848;42.016;23.098;2022-11-27T08:28:30;98140.66;;;4.04;100.00
7614;BME280;3848;42.016;23.098;2022-11-27T08:30:58;98143.88;;;4.00;100.00
7614;BME280;3848;42.016;23.098;2022-11-27T08:33:25;98143.84;;;3.98;100.00
7614;BME280;3848;42.016;23.098;2022-11-27T08:35:53;98134.59;;;3.97;100.00
7614;BME280;3848;42.016;23.098;2022-11-27T08:38:20;98137.34;;;4.05;100.00
7614;BME280;3848;42.016;23.098;2022-11-27T08:40:53;98141.56;;;4.06;100.00
7614;BME280;3848;42.016;23.098;2022-11-27T08:43:20;98136.97;;;4.18;100.00
7614;BME280;3848;42.016;23.098;2022-11-27T08:45:47;98132.25;;;4.28;100.00
7614;BME280;3848;42.016;23.098;2022-11-27T08:48:15;98139.38;;;4.40;100.00
7614;BME280;3848;42.016;23.098;2022-11-27T08:50:42;98140.63;;;4.54;100.00
7614;BME280;3848;42.016;23.098;2022-11-27T08:53:10;98131.88;;;4.69;100.00
7614;BME280;3848;42.016;23.098;2022-11-27T08:55:37;98126.06;;;4.71;100.00
7614;BME280;3848;42.016;23.098;2022-11-27T08:58:04;98136.06;;;4.68;100.00
7614;BME280;3848;42.016;23.098;2022-11-27T09:00:31;98131.00;;;4.68;100.00
7614;BME280;3848;42.016;23.098;2022-11-27T09:02:59;98133.34;;;4.62;100.00
7614;BME280;3848;42.016;23.098;2022-11-27T09:05:26;98132.63;;;4.66;100.00
7614;BME280;3848;42.016;23.098;2022-11-27T09:07:53;98132.06;;;4.75;100.00
7614;BME280;3848;42.016;23.098;2022-11-27T09:10:22;98124.75;;;4.82;100.00
7614;BME280;3848;42.016;23.098;2022-11-27T09:12:49;98113.09;;;4.86;100.00
7614;BME280;3848;42.016;23.098;2022-11-27T09:15:16;98114.94;;;4.92;100.00
7614;BME280;3848;42.016;23.098;2022-11-27T09:17:43;98113.69;;;5.06;100.00
7614;BME280;3848;42.016;23.098;2022-11-27T09:20:10;98111.25;;;5.09;100.00
7614;BME280;3848;42.016;23.098;2022-11-27T09:22:40;98097.16;;;5.15;100.00
7614;BME280;3848;42.016;23.098;2022-11-27T09:25:07;98088.34;;;5.30;100.00
7614;BME280;3848;42.016;23.098;2022-11-27T09:27:37;98090.41;;;5.43;100.00
7614;BME280;3848;42.016;23.098;2022-11-27T09:30:06;98093.22;;;5.54;100.00
7614;BME280;3848;42.016;23.098;2022-11-27T09:32:33;98092.63;;;5.62;100.00
7614;BME280;3848;42.016;23.098;2022-11-27T09:35:00;98087.69;;;5.67;100.00
7614;BME280;3848;42.016;23.098;2022-11-27T09:37:26;98086.19;;;5.73;100.00
7614;BME280;3848;42.016;23.098;2022-11-27T09:39:53;98085.66;;;5.85;100.00
7614;BME280;3848;42.016;23.098;2022-11-27T09:42:34;98088.81;;;5.78;100.00
7614;BME280;3848;42.016;23.098;2022-11-27T09:45:07;98072.72;;;5.73;100.00
7614;BME280;3848;42.016;23.098;2022-11-27T09:47:40;98073.53;;;5.72;100.00
7614;BME280;3848;42.016;23.098;2022-11-27T09:50:12;98070.78;;;5.94;100.00
7614;BME280;3848;42.016;23.098;2022-11-27T09:52:42;98062.75;;;6.09;100.00
7614;BME280;3848;42.016;23.098;2022-11-27T09:55:14;98056.41;;;6.25;100.00
7614;BME280;3848;42.016;23.098;2022-11-27T09:57:47;98058.38;;;6.38;100.00
7614;BME280;3848;42.016;23.098;2022-11-27T10:00:19;98058.47;;;6.42;100.00
7614;BME280;3848;42.016;23.098;2022-11-27T10:02:46;98054.50;;;6.52;100.00
7614;BME280;3848;42.016;23.098;2022-11-27T10:05:17;98052.94;;;6.57;100.00
7614;BME280;3848;42.016;23.098;2022-11-27T10:08:09;98050.44;;;6.59;100.00
7614;BME280;3848;42.016;23.098;2022-11-27T10:10:41;98048.78;;;6.59;100.00
7614;BME280;3848;42.016;23.098;2022-11-27T10:13:24;98049.38;;;6.48;100.00
7614;BME280;3848;42.016;23.098;2022-11-27T10:16:01;97999.97;;;6.23;100.00
7614;BME280;3848;42.016;23.098;2022-11-27T10:18:34;98026.75;;;6.52;100.00
7614;BME280;3848;42.016;23.098;2022-11-27T10:21:10;98026.00;;;6.56;100.00
7614;BME280;3848;42.016;23.098;2022-11-27T10:23:47;98034.72;;;6.70;100.00
7614;BME280;3848;42.016;23.098;2022-11-27T10:26:18;98033.97;;;6.75;100.00
7614;BME280;3848;42.016;23.098;2022-11-27T10:28:51;98028.00;;;6.71;100.00
7614;BME280;3848;42.016;23.098;2022-11-27T10:31:30;98034.88;;;6.78;100.00
7614;BME280;3848;42.016;23.098;2022-11-27T10:34:01;98022.22;;;6.77;100.00
7614;BME280;3848;42.016;23.098;2022-11-27T10:36:33;98001.56;;;6.55;100.00
7614;BME280;3848;42.016;23.098;2022-11-27T10:39:02;97991.94;;;6.39;100.00
7614;BME280;3848;42.016;23.098;2022-11-27T10:41:36;98003.16;;;6.52;100.00
7614;BME280;3848;42.016;23.098;2022-11-27T10:44:26;98004.97;;;6.57;100.00
7614;BME280;3848;42.016;23.098;2022-11-27T10:47:00;98009.19;;;6.58;100.00
7614;BME280;3848;42.016;23.098;2022-11-27T10:49:27;98006.69;;;6.60;100.00
7614;BME280;3848;42.016;23.098;2022-11-27T10:51:54;98005.94;;;6.64;100.00
7614;BME280;3848;42.016;23.098;2022-11-27T10:54:25;97998.50;;;6.68;100.00
7614;BME280;3848;42.016;23.098;2022-11-27T10:57:10;97994.28;;;6.69;100.00
7614;BME280;3848;42.016;23.098;2022-11-27T10:59:43;97981.56;;;6.66;100.00
7614;BME280;3848;42.016;23.098;2022-11-27T11:02:29;97982.53;;;6.71;100.00
7614;BME280;3848;42.016;23.098;2022-11-27T11:04:56;97978.59;;;6.85;100.00
7614;BME280;3848;42.016;23.098;2022-11-27T11:07:25;97968.59;;;6.88;100.00
7614;BME280;3848;42.016;23.098;2022-11-27T11:09:52;97973.97;;;7.07;100.00
7614;BME280;3848;42.016;23.098;2022-11-27T11:12:21;97968.09;;;7.08;100.00
7614;BME280;3848;42.016;23.098;2022-11-27T11:14:53;97962.91;;;7.00;100.00
7614;BME280;3848;42.016;23.098;2022-11-27T11:17:24;97939.13;;;6.89;100.00
7614;BME280;3848;42.016;23.098;2022-11-27T11:19:53;97943.53;;;6.99;100.00
7614;BME280;3848;42.016;23.098;2022-11-27T11:22:20;97952.09;;;7.07;100.00
7614;BME280;3848;42.016;23.098;2022-11-27T11:24:48;97949.50;;;7.04;100.00
7614;BME280;3848;42.016;23.098;2022-11-27T11:27:18;97938.53;;;7.02;100.00
7614;BME280;3848;42.016;23.098;2022-11-27T11:29:48;97934.31;;;7.02;100.00
7614;BME280;3848;42.016;23.098;2022-11-27T11:32:21;97923.50;;;7.08;100.00
7614;BME280;3848;42.016;23.098;2022-11-27T11:34:50;97925.41;;;7.21;100.00
7614;BME280;3848;42.016;23.098;2022-11-27T11:37:25;97921.28;;;7.26;100.00
7614;BME280;3848;42.016;23.098;2022-11-27T11:39:55;97912.81;;;7.24;100.00
7614;BME280;3848;42.016;23.098;2022-11-27T11:42:25;97907.69;;;7.20;100.00
7614;BME280;3848;42.016;23.098;2022-11-27T11:44:53;97903.66;;;7.29;100.00
7614;BME280;3848;42.016;23.098;2022-11-27T11:47:22;97907.78;;;7.26;100.00
7614;BME280;3848;42.016;23.098;2022-11-27T11:49:49;97907.72;;;7.23;100.00
7614;BME280;3848;42.016;23.098;2022-11-27T11:52:32;97911.97;;;7.25;100.00
7614;BME280;3848;42.016;23.098;2022-11-27T11:55:10;97907.69;;;7.20;100.00
7614;BME280;3848;42.016;23.098;2022-11-27T12:00:47;97830.28;;;6.78;100.00
7614;BME280;3848;42.016;23.098;2022-11-27T12:03:27;97898.34;;;7.16;100.00
7614;BME280;3848;42.016;23.098;2022-11-27T12:06:21;97882.34;;;7.17;100.00
7614;BME280;3848;42.016;23.098;2022-11-27T12:09:05;97892.03;;;7.41;100.00
7614;BME280;3848;42.016;23.098;2022-11-27T12:11:39;97879.31;;;7.36;100.00
7614;BME280;3848;42.016;23.098;2022-11-27T12:14:17;97886.16;;;7.43;100.00
7614;BME280;3848;42.016;23.098;2022-11-27T12:16:56;97865.03;;;7.40;100.00
7614;BME280;3848;42.016;23.098;2022-11-27T12:19:40;97869.59;;;7.60;100.00
7614;BME280;3848;42.016;23.098;2022-11-27T12:22:18;97811.84;;;7.32;100.00
7614;BME280;3848;42.016;23.098;2022-11-27T12:24:54;97862.88;;;7.62;100.00
7614;BME280;3848;42.016;23.098;2022-11-27T12:27:44;97855.22;;;7.58;100.00
7614;BME280;3848;42.016;23.098;2022-11-27T12:30:17;97860.38;;;7.65;100.00
7614;BME280;3848;42.016;23.098;2022-11-27T12:33:02;97862.13;;;7.68;100.00
7614;BME280;3848;42.016;23.098;2022-11-27T12:35:33;97852.91;;;7.72;100.00
7614;BME280;3848;42.016;23.098;2022-11-27T12:38:26;97863.81;;;7.69;100.00
7614;BME280;3848;42.016;23.098;2022-11-27T12:41:17;97859.53;;;7.65;100.00
7614;BME280;3848;42.016;23.098;2022-11-27T12:43:50;97860.41;;;7.67;100.00
7614;BME280;3848;42.016;23.098;2022-11-27T12:46:25;97864.75;;;7.74;100.00
7614;BME280;3848;42.016;23.098;2022-11-27T12:48:56;97858.84;;;7.74;100.00
7614;BME280;3848;42.016;23.098;2022-11-27T12:51:27;97864.81;;;7.79;100.00
7614;BME280;3848;42.016;23.098;2022-11-27T12:53:58;97856.41;;;7.80;100.00
7614;BME280;3848;42.016;23.098;2022-11-27T12:56:31;97852.06;;;7.71;100.00
7614;BME280;3848;42.016;23.098;2022-11-27T12:59:09;97855.50;;;7.76;100.00
7614;BME280;3848;42.016;23.098;2022-11-27T13:01:40;97853.03;;;7.79;100.00
7614;BME280;3848;42.016;23.098;2022-11-27T13:04:17;97843.72;;;7.77;100.00
7614;BME280;3848;42.016;23.098;2022-11-27T13:06:53;97849.75;;;7.88;100.00
7614;BME280;3848;42.016;23.098;2022-11-27T13:09:26;97845.56;;;7.90;100.00
7614;BME280;3848;42.016;23.098;2022-11-27T13:11:58;97847.19;;;7.85;100.00
7614;BME280;3848;42.016;23.098;2022-11-27T13:14:27;97845.28;;;7.70;100.00
7614;BME280;3848;42.016;23.098;2022-11-27T13:16:56;97847.03;;;7.74;100.00
7614;BME280;3848;42.016;23.098;2022-11-27T13:19:29;97839.47;;;7.74;100.00
7614;BME280;3848;42.016;23.098;2022-11-27T13:21:58;97840.22;;;7.70;100.00
7614;BME280;3848;42.016;23.098;2022-11-27T13:24:27;97838.47;;;7.66;100.00
7614;BME280;3848;42.016;23.098;2022-11-27T13:27:00;97843.47;;;7.61;100.00
7614;BME280;3848;42.016;23.098;2022-11-27T13:29:31;97832.31;;;7.49;100.00
7614;BME280;3848;42.016;23.098;2022-11-27T13:32:00;97840.00;;;7.55;100.00